Time;durP1;ratioP1;P1;durP2;ratioP2;P2;SDS_P1;SDS_P2;PMS_P1;PMS_P2;Temp;Humidity;BMP_temperature;BMP_pressure;BME280_temperature;BME280_humidity;BME280_pressure;Samples;Min_cycle;Max_cycle;Signal;HPM_P1;HPM_P2
2022/02/03 00:01:23;;;;;;;7.15;4.72;;;;;;;;;;4990279;28;20097;-69
2022/02/03 00:03:56;;;;;;;6.55;4.82;;;;;;;;;;4988390;28;20077;-69
2022/02/03 00:06:34;;;;;;;11.80;7.82;;;;;;;;;;4984109;28;20030;-69
2022/02/03 00:16:13;;;;;;;6.15;4.18;;;;;;;;;;4984082;28;20097;-71
2022/02/03 00:25:12;;;;;;;6.75;4.50;;;;;;;;;;4989326;28;20027;-69
2022/02/03 00:28:05;;;;;;;8.95;6.10;;;;;;;;;;4987540;28;20083;-70
2022/02/03 00:49:11;;;;;;;9.07;5.10;;;;;;;;;;4986194;28;20046;-68
2022/02/03 00:51:42;;;;;;;7.22;4.60;;;;;;;;;;4984465;28;20027;-70
2022/02/03 00:54:10;;;;;;;7.80;4.28;;;;;;;;;;4984259;28;20082;-70
2022/02/03 00:56:41;;;;;;;9.50;5.10;;;;;;;;;;4987536;28;20044;-70
2022/02/03 00:59:14;;;;;;;7.63;5.20;;;;;;;;;;4989763;28;20026;-70
2022/02/03 01:01:50;;;;;;;9.75;6.13;;;;;;;;;;4989415;28;20027;-69
2022/02/03 01:04:17;;;;;;;8.80;4.88;;;;;;;;;;4981843;28;20037;-70
2022/02/03 01:06:53;;;;;;;8.57;4.63;;;;;;;;;;4986642;28;20512;-70
2022/02/03 01:09:22;;;;;;;8.95;4.93;;;;;;;;;;4987367;28;20030;-71
2022/02/03 01:11:50;;;;;;;8.65;5.00;;;;;;;;;;4999608;28;20026;-70
2022/02/03 01:14:23;;;;;;;7.70;5.15;;;;;;;;;;4981655;28;20034;-70
2022/02/03 01:18:05;;;;;;;8.05;4.38;;;;;;;;;;4978303;28;20133;-70
2022/02/03 01:33:45;;;;;;;9.60;4.93;;;;;;;;;;4981268;28;20096;-70
2022/02/03 01:44:46;;;;;;;6.20;4.77;;;;;;;;;;4980819;28;20037;-68
2022/02/03 01:47:28;;;;;;;7.93;4.93;;;;;;;;;;4979858;28;20041;-69
2022/02/03 01:52:25;;;;;;;9.07;4.47;;;;;;;;;;4985839;28;20386;-70
2022/02/03 01:54:53;;;;;;;6.95;4.28;;;;;;;;;;4991617;28;20038;-69
2022/02/03 01:57:21;;;;;;;7.60;5.00;;;;;;;;;;4988886;28;20145;-70
2022/02/03 01:59:52;;;;;;;6.38;4.75;;;;;;;;;;4990413;28;20488;-69
2022/02/03 02:02:19;;;;;;;8.88;4.18;;;;;;;;;;4993863;28;20358;-71
2022/02/03 02:04:48;;;;;;;5.47;4.20;;;;;;;;;;4982749;28;20030;-69
2022/02/03 02:07:34;;;;;;;7.50;4.53;;;;;;;;;;4978796;28;20053;-69
2022/02/03 02:10:17;;;;;;;8.35;4.20;;;;;;;;;;4986322;28;20060;-69
2022/02/03 02:13:08;;;;;;;6.13;4.30;;;;;;;;;;4991448;28;20110;-69
2022/02/03 02:38:10;;;;;;;6.13;4.22;;;;;;;;;;4993597;28;20077;-70
2022/02/03 02:43:27;;;;;;;6.70;4.72;;;;;;;;;;4991472;28;20076;-68
2022/02/03 02:45:56;;;;;;;5.78;4.45;;;;;;;;;;5009358;28;20469;-70
2022/02/03 02:48:41;;;;;;;6.95;4.13;;;;;;;;;;4981750;28;20046;-70
2022/02/03 02:51:12;;;;;;;5.10;4.40;;;;;;;;;;4986596;28;20026;-70
2022/02/03 02:59:29;;;;;;;10.02;4.80;;;;;;;;;;4986199;28;20373;-70
2022/02/03 03:30:05;;;;;;;7.53;4.15;;;;;;;;;;4985024;28;20084;-70
2022/02/03 03:32:45;;;;;;;6.43;4.30;;;;;;;;;;4986113;28;20487;-69
2022/02/03 03:35:34;;;;;;;7.85;4.03;;;;;;;;;;4988398;28;20121;-69
2022/02/03 03:38:00;;;;;;;7.53;4.93;;;;;;;;;;4991274;28;20041;-70
2022/02/03 03:40:29;;;;;;;5.35;4.50;;;;;;;;;;4985976;28;20023;-68
2022/02/03 03:43:00;;;;;;;7.70;4.32;;;;;;;;;;4991233;28;20110;-70
2022/02/03 03:45:30;;;;;;;5.72;3.90;;;;;;;;;;4988662;28;20034;-69
2022/02/03 03:47:57;;;;;;;6.40;4.72;;;;;;;;;;4996094;28;20022;-68
2022/02/03 03:50:25;;;;;;;7.63;3.88;;;;;;;;;;4989320;28;20412;-69
2022/02/03 03:53:02;;;;;;;7.88;4.95;;;;;;;;;;4987765;28;20078;-70
2022/02/03 04:40:20;;;;;;;7.75;3.20;;;;;;;;;;4982022;28;20037;-68
2022/02/03 04:51:47;;;;;;;3.78;2.83;;;;;;;;;;4977495;28;20042;-70
2022/02/03 05:00:43;;;;;;;5.15;2.88;;;;;;;;;;4983783;28;20057;-69
2022/02/03 05:03:12;;;;;;;4.88;3.30;;;;;;;;;;4981040;28;20574;-70
2022/02/03 05:05:58;;;;;;;7.25;3.40;;;;;;;;;;4983550;28;20030;-70
2022/02/03 05:08:34;;;;;;;;;;;;;;;;;;4981852;28;20392;-71
2022/02/03 05:11:30;;;;;;;3.78;3.42;;;;;;;;;;4982708;28;19921;-70
2022/02/03 05:14:53;;;;;;;4.30;3.55;;;;;;;;;;4984322;28;20104;-70
2022/02/03 05:25:43;;;;;;;4.15;3.30;;;;;;;;;;4987340;28;20307;-68
2022/02/03 05:48:53;;;;;;;4.47;2.80;;;;;;;;;;4988337;28;20053;-69
2022/02/03 05:51:29;;;;;;;5.50;2.50;;;;;;;;;;4984810;28;20045;-70
2022/02/03 06:04:55;;;;;;;2.83;2.25;;;;;;;;;;4981546;28;20393;-69
2022/02/03 06:13:02;;;;;;;3.95;2.10;;;;;;;;;;4990358;28;20095;-69
2022/02/03 06:15:46;;;;;;;4.43;2.30;;;;;;;;;;4987540;28;20037;-68
2022/02/03 06:29:03;;;;;;;3.65;2.00;;;;;;;;;;4991386;28;20108;-70
2022/02/03 06:31:29;;;;;;;3.30;2.20;;;;;;;;;;4985178;28;20076;-71
2022/02/03 06:33:56;;;;;;;3.78;2.28;;;;;;;;;;4983260;28;20038;-71
2022/02/03 06:36:22;;;;;;;4.20;2.50;;;;;;;;;;4992197;28;20078;-69
2022/02/03 06:38:48;;;;;;;2.78;2.03;;;;;;;;;;4991808;28;20022;-70
2022/02/03 06:41:14;;;;;;;2.90;2.20;;;;;;;;;;4988007;28;20105;-68
2022/02/03 06:43:43;;;;;;;3.85;2.20;;;;;;;;;;4999043;28;20034;-70
2022/02/03 06:46:10;;;;;;;3.15;2.20;;;;;;;;;;4988772;28;20207;-70
2022/02/03 06:48:37;;;;;;;2.75;2.28;;;;;;;;;;4988284;28;20045;-69
2022/02/03 06:51:11;;;;;;;4.55;2.40;;;;;;;;;;4980379;28;20496;-69
2022/02/03 06:53:40;;;;;;;3.17;2.40;;;;;;;;;;4993429;28;20030;-70
2022/02/03 06:56:24;;;;;;;4.85;2.58;;;;;;;;;;4985251;28;20041;-70
2022/02/03 06:58:56;;;;;;;3.00;2.15;;;;;;;;;;4983375;28;20431;-69
2022/02/03 07:01:28;;;;;;;3.53;2.30;;;;;;;;;;4992545;28;20090;-71
2022/02/03 07:03:58;;;;;;;4.90;2.33;;;;;;;;;;4995969;28;20116;-68
2022/02/03 07:06:24;;;;;;;5.38;2.75;;;;;;;;;;4987723;28;20473;-68
2022/02/03 07:08:52;;;;;;;7.22;2.38;;;;;;;;;;4981350;28;20460;-70
2022/02/03 07:11:20;;;;;;;3.70;2.75;;;;;;;;;;4984238;28;20537;-70
2022/02/03 07:13:47;;;;;;;5.20;2.55;;;;;;;;;;4995901;28;20039;-71
2022/02/03 07:16:13;;;;;;;3.72;3.00;;;;;;;;;;4984987;28;20034;-71
2022/02/03 07:18:39;;;;;;;3.45;2.55;;;;;;;;;;4986850;28;20381;-70
2022/02/03 07:21:05;;;;;;;2.60;2.20;;;;;;;;;;4984256;28;20037;-71
2022/02/03 07:23:34;;;;;;;4.97;2.50;;;;;;;;;;4983908;28;20029;-71
2022/02/03 07:26:00;;;;;;;6.40;2.60;;;;;;;;;;4987232;28;20023;-71
2022/02/03 07:28:26;;;;;;;3.53;2.05;;;;;;;;;;4987526;28;20035;-72
2022/02/03 07:30:52;;;;;;;4.63;2.53;;;;;;;;;;4983870;28;20027;-70
2022/02/03 07:33:20;;;;;;;3.00;2.55;;;;;;;;;;4986707;28;20377;-70
2022/02/03 07:35:46;;;;;;;4.10;2.40;;;;;;;;;;4981429;28;20022;-71
2022/02/03 07:38:12;;;;;;;5.47;2.83;;;;;;;;;;4984024;28;20432;-71
2022/02/03 07:40:38;;;;;;;5.25;2.90;;;;;;;;;;4980906;28;20035;-70
2022/02/03 07:43:09;;;;;;;4.25;2.47;;;;;;;;;;4980945;28;20045;-71
2022/02/03 07:45:35;;;;;;;3.22;2.38;;;;;;;;;;4982085;28;20022;-71
2022/02/03 07:48:01;;;;;;;3.78;2.10;;;;;;;;;;4981436;28;20084;-72
2022/02/03 07:50:27;;;;;;;3.70;2.22;;;;;;;;;;4987061;28;20089;-72
2022/02/03 07:52:54;;;;;;;1.98;1.77;;;;;;;;;;4977338;28;20031;-71
2022/02/03 07:55:20;;;;;;;3.47;2.35;;;;;;;;;;4984500;28;20249;-70
2022/02/03 07:57:47;;;;;;;3.13;2.22;;;;;;;;;;4979121;28;20400;-69
2022/02/03 08:00:14;;;;;;;5.18;2.58;;;;;;;;;;4976888;28;20022;-71
2022/02/03 08:02:42;;;;;;;5.35;2.40;;;;;;;;;;4977926;28;20044;-71
2022/02/03 08:05:10;;;;;;;3.50;1.90;;;;;;;;;;4983658;28;20560;-71
2022/02/03 08:07:46;;;;;;;2.58;2.03;;;;;;;;;;4978298;28;20066;-71
2022/02/03 08:10:27;;;;;;;2.92;2.13;;;;;;;;;;4981932;28;20058;-71
2022/02/03 08:12:53;;;;;;;3.28;2.03;;;;;;;;;;4976731;28;20026;-71
2022/02/03 08:15:23;;;;;;;3.53;2.15;;;;;;;;;;4987183;28;20037;-71
2022/02/03 08:17:51;;;;;;;2.58;2.22;;;;;;;;;;4985787;28;20030;-73
2022/02/03 08:20:19;;;;;;;3.05;2.17;;;;;;;;;;4984762;28;20076;-71
2022/02/03 08:22:57;;;;;;;5.40;2.30;;;;;;;;;;4982835;28;20018;-71
2022/02/03 08:25:27;;;;;;;2.90;2.10;;;;;;;;;;4986376;28;20533;-72
2022/02/03 08:30:45;;;;;;;5.00;2.20;;;;;;;;;;4984338;28;20421;-71
2022/02/03 08:33:18;;;;;;;3.30;2.17;;;;;;;;;;4984478;28;20035;-72
2022/02/03 08:35:48;;;;;;;3.45;2.33;;;;;;;;;;4983610;28;20421;-71
2022/02/03 08:38:46;;;;;;;3.28;2.00;;;;;;;;;;4982263;28;20034;-72
2022/02/03 08:41:03;;;;;;;3.97;2.05;;;;;;;;;;4989486;28;20034;-71
2022/02/03 08:43:32;;;;;;;3.10;2.22;;;;;;;;;;4981946;28;20034;-71
2022/02/03 08:45:59;;;;;;;7.95;2.40;;;;;;;;;;4983717;28;20030;-72
2022/02/03 08:48:25;;;;;;;3.53;1.90;;;;;;;;;;4978159;28;20375;-71
2022/02/03 08:50:52;;;;;;;4.07;2.20;;;;;;;;;;4979520;28;20027;-71
2022/02/03 08:56:13;;;;;;;2.37;2.13;;;;;;;;;;4983608;28;20040;-71
2022/02/03 09:58:26;;;;;;;2.42;2.00;;;;;;;;;;4979839;28;20033;-71
2022/02/03 10:01:07;;;;;;;3.72;2.10;;;;;;;;;;4984955;28;20025;-71
2022/02/03 10:03:47;;;;;;;2.92;2.00;;;;;;;;;;4979226;28;20019;-72
2022/02/03 10:06:23;;;;;;;2.40;1.83;;;;;;;;;;4981626;28;20039;-73
2022/02/03 10:08:53;;;;;;;5.97;2.00;;;;;;;;;;4983964;28;20105;-72
2022/02/03 10:11:27;;;;;;;5.22;2.65;;;;;;;;;;4980483;28;20049;-73
2022/02/03 10:13:57;;;;;;;2.20;1.92;;;;;;;;;;4992849;28;20037;-72
2022/02/03 10:16:27;;;;;;;7.43;2.13;;;;;;;;;;4975581;28;20568;-72
2022/02/03 10:19:09;;;;;;;6.05;2.42;;;;;;;;;;4978795;28;20489;-71
2022/02/03 10:21:35;;;;;;;3.38;2.15;;;;;;;;;;4976815;28;20113;-73
2022/02/03 10:24:03;;;;;;;3.20;1.92;;;;;;;;;;4978929;28;20058;-71
2022/02/03 10:26:37;;;;;;;2.85;2.28;;;;;;;;;;4980574;28;20096;-72
2022/02/03 10:29:04;;;;;;;5.95;1.90;;;;;;;;;;4979687;28;20050;-72
2022/02/03 10:31:35;;;;;;;4.55;2.15;;;;;;;;;;4978040;28;20910;-73
2022/02/03 10:34:04;;;;;;;2.22;1.90;;;;;;;;;;4981039;28;20042;-71
2022/02/03 10:50:41;;;;;;;4.28;2.30;;;;;;;;;;4983690;28;20485;-71
2022/02/03 10:53:28;;;;;;;6.53;2.45;;;;;;;;;;4981956;28;20045;-69
2022/02/03 10:56:14;;;;;;;3.85;1.90;;;;;;;;;;4984890;28;20038;-72
2022/02/03 11:04:33;;;;;;;3.95;3.65;;;;;;;;;;4982306;28;20034;-72
2022/02/03 11:10:04;;;;;;;2.65;1.95;;;;;;;;;;4980693;28;20116;-73
2022/02/03 11:12:30;;;;;;;6.97;1.90;;;;;;;;;;5000621;28;20464;-71
2022/02/03 11:14:58;;;;;;;3.75;2.30;;;;;;;;;;4995064;28;20041;-71
2022/02/03 11:17:26;;;;;;;5.75;2.17;;;;;;;;;;4986844;28;20034;-72
2022/02/03 11:19:56;;;;;;;4.65;2.47;;;;;;;;;;4982277;28;20495;-72
2022/02/03 11:22:30;;;;;;;5.78;2.50;;;;;;;;;;4981972;28;20041;-70
2022/02/03 11:25:22;;;;;;;5.60;2.40;;;;;;;;;;4985112;28;20033;-72
2022/02/03 11:52:08;;;;;;;2.97;2.33;;;;;;;;;;4983399;28;20450;-72
2022/02/03 11:54:57;;;;;;;3.53;1.80;;;;;;;;;;4983070;28;20314;-72
2022/02/03 11:58:01;;;;;;;6.25;2.90;;;;;;;;;;4999111;28;20026;-72
2022/02/03 12:04:40;;;;;;;2.95;2.10;;;;;;;;;;4981332;28;20511;-72
2022/02/03 12:07:11;;;;;;;7.38;2.17;;;;;;;;;;4986703;28;20049;-71
2022/02/03 12:14:48;;;;;;;3.42;2.30;;;;;;;;;;4980045;28;20485;-72
2022/02/03 12:17:30;;;;;;;6.72;2.10;;;;;;;;;;4979519;28;20481;-72
2022/02/03 12:19:59;;;;;;;7.60;3.75;;;;;;;;;;4984984;28;20072;-71
2022/02/03 12:23:05;;;;;;;4.45;2.03;;;;;;;;;;4979822;28;20078;-72
2022/02/03 12:25:33;;;;;;;6.57;2.22;;;;;;;;;;4982849;28;20049;-72
2022/02/03 12:28:18;;;;;;;2.70;2.00;;;;;;;;;;4982294;28;20384;-72
2022/02/03 12:38:50;;;;;;;3.20;2.38;;;;;;;;;;4979937;28;20033;-71
2022/02/03 12:41:21;;;;;;;4.60;2.17;;;;;;;;;;4981766;28;20764;-73
2022/02/03 12:44:04;;;;;;;3.30;1.90;;;;;;;;;;4981403;28;20026;-72
2022/02/03 12:46:30;;;;;;;3.15;2.00;;;;;;;;;;4981828;28;20034;-72
2022/02/03 12:48:57;;;;;;;3.95;2.58;;;;;;;;;;4982330;28;20037;-70
2022/02/03 12:51:24;;;;;;;3.63;1.75;;;;;;;;;;4983417;28;20124;-73
2022/02/03 12:53:50;;;;;;;3.60;2.00;;;;;;;;;;4985727;28;20022;-73
2022/02/03 12:56:19;;;;;;;3.53;2.05;;;;;;;;;;4977572;28;20034;-72
2022/02/03 12:58:49;;;;;;;4.75;2.05;;;;;;;;;;4979397;28;20022;-73
2022/02/03 13:01:18;;;;;;;5.38;2.03;;;;;;;;;;4980726;28;20022;-73
2022/02/03 13:03:48;;;;;;;4.57;2.17;;;;;;;;;;4977097;28;20366;-71
2022/02/03 13:06:24;;;;;;;3.30;1.90;;;;;;;;;;4978333;28;20027;-72
2022/02/03 13:08:52;;;;;;;3.60;1.77;;;;;;;;;;4980882;28;20385;-71
2022/02/03 13:14:03;;;;;;;4.00;1.90;;;;;;;;;;4981739;28;20069;-71
2022/02/03 13:16:29;;;;;;;2.78;1.88;;;;;;;;;;4980626;28;20436;-70
2022/02/03 13:19:12;;;;;;;2.40;1.45;;;;;;;;;;4979367;28;20097;-72
2022/02/03 13:24:25;;;;;;;3.92;1.98;;;;;;;;;;4980208;28;20026;-71
2022/02/03 13:26:52;;;;;;;3.72;1.75;;;;;;;;;;4977299;28;20037;-71
2022/02/03 13:29:36;;;;;;;2.03;1.60;;;;;;;;;;4982060;28;20071;-71
2022/02/03 13:32:10;;;;;;;4.70;1.90;;;;;;;;;;4984610;28;20301;-70
2022/02/03 13:34:45;;;;;;;5.37;1.87;;;;;;;;;;4978160;28;20069;-70
2022/02/03 13:37:26;;;;;;;3.47;1.65;;;;;;;;;;4980930;28;20304;-69
2022/02/03 13:40:11;;;;;;;4.18;1.83;;;;;;;;;;4977967;28;20440;-70
2022/02/03 13:42:39;;;;;;;2.63;1.85;;;;;;;;;;4980015;28;20132;-70
2022/02/03 13:45:13;;;;;;;4.65;2.13;;;;;;;;;;4981455;28;20500;-71
2022/02/03 13:47:39;;;;;;;5.03;2.33;;;;;;;;;;4981024;28;20575;-71
2022/02/03 13:50:13;;;;;;;4.00;2.00;;;;;;;;;;4977450;28;20030;-71
2022/02/03 14:22:12;;;;;;;3.95;2.00;;;;;;;;;;4982889;28;20194;-71
2022/02/03 14:27:30;;;;;;;5.88;1.90;;;;;;;;;;4985113;28;20151;-70
2022/02/03 14:30:13;;;;;;;4.22;1.95;;;;;;;;;;4983943;28;20465;-69
2022/02/03 14:32:41;;;;;;;4.30;2.35;;;;;;;;;;4988513;28;20038;-70
2022/02/03 14:35:10;;;;;;;3.35;1.90;;;;;;;;;;4981446;28;20504;-70
2022/02/03 14:37:51;;;;;;;5.18;2.10;;;;;;;;;;4983919;28;20038;-70
2022/02/03 14:40:50;;;;;;;3.90;2.47;;;;;;;;;;4985206;28;20030;-71
2022/02/03 14:43:07;;;;;;;5.30;2.80;;;;;;;;;;4983809;28;20045;-71
2022/02/03 14:45:33;;;;;;;7.05;2.50;;;;;;;;;;4983266;28;21207;-70
2022/02/03 14:47:59;;;;;;;4.05;2.10;;;;;;;;;;4985718;28;20503;-71
2022/02/03 14:50:25;;;;;;;4.03;2.20;;;;;;;;;;4983690;28;20189;-70
2022/02/03 14:53:01;;;;;;;10.77;3.78;;;;;;;;;;4980118;28;20031;-70
2022/02/03 14:58:23;;;;;;;5.53;2.70;;;;;;;;;;4984438;28;20120;-70
2022/02/03 15:00:49;;;;;;;4.55;2.40;;;;;;;;;;4981919;28;20023;-70
2022/02/03 15:03:17;;;;;;;8.85;4.05;;;;;;;;;;4984560;28;20061;-70
2022/02/03 15:05:43;;;;;;;8.35;4.00;;;;;;;;;;4997145;28;20031;-71
2022/02/03 15:08:19;;;;;;;5.70;2.40;;;;;;;;;;4994296;28;20500;-72
2022/02/03 15:13:36;;;;;;;9.35;4.28;;;;;;;;;;4984789;28;20427;-71
2022/02/03 15:16:03;;;;;;;5.25;2.70;;;;;;;;;;4980065;28;20503;-71
2022/02/03 15:18:29;;;;;;;5.57;2.15;;;;;;;;;;4978102;28;20019;-71
2022/02/03 15:20:56;;;;;;;6.18;2.47;;;;;;;;;;4982903;28;20030;-71
2022/02/03 15:23:22;;;;;;;3.60;2.28;;;;;;;;;;4980109;28;20023;-70
2022/02/03 15:25:49;;;;;;;6.95;2.50;;;;;;;;;;4983572;28;20034;-70
2022/02/03 15:28:15;;;;;;;7.35;2.67;;;;;;;;;;4981144;28;20030;-71
2022/02/03 15:30:41;;;;;;;7.70;2.50;;;;;;;;;;4982814;28;20109;-71
2022/02/03 15:33:08;;;;;;;7.93;4.32;;;;;;;;;;4982641;28;20037;-71
2022/02/03 15:35:38;;;;;;;17.30;10.70;;;;;;;;;;4980894;28;20030;-70
2022/02/03 15:38:07;;;;;;;12.95;7.35;;;;;;;;;;4982689;28;20065;-71
2022/02/03 15:40:35;;;;;;;15.88;8.65;;;;;;;;;;4980399;28;20018;-71
2022/02/03 15:45:33;;;;;;;15.18;8.98;;;;;;;;;;4981830;28;20034;-71
2022/02/03 15:48:05;;;;;;;11.40;3.45;;;;;;;;;;4980833;28;20034;-71
2022/02/03 15:50:57;;;;;;;5.93;2.58;;;;;;;;;;4980182;28;20965;-71
2022/02/03 15:56:29;;;;;;;8.85;3.05;;;;;;;;;;4982014;28;20033;-71
2022/02/03 16:18:03;;;;;;;8.00;3.63;;;;;;;;;;4984429;28;20147;-71
2022/02/03 16:20:43;;;;;;;5.15;3.00;;;;;;;;;;4982189;28;20034;-71
2022/02/03 16:43:13;;;;;;;17.17;7.22;;;;;;;;;;4980216;28;20076;-69
2022/02/03 16:53:21;;;;;;;12.00;4.60;;;;;;;;;;4978940;28;20048;-69
2022/02/03 16:55:48;;;;;;;10.85;4.80;;;;;;;;;;4977012;28;20535;-70
2022/02/03 16:58:15;;;;;;;31.25;5.28;;;;;;;;;;4990173;28;20034;-70
2022/02/03 17:00:43;;;;;;;10.85;6.10;;;;;;;;;;4985271;28;20589;-70
2022/02/03 17:03:09;;;;;;;13.32;5.40;;;;;;;;;;4992492;28;20269;-71
2022/02/03 17:05:37;;;;;;;16.42;6.97;;;;;;;;;;4976648;28;20425;-70
2022/02/03 17:08:04;;;;;;;32.13;20.58;;;;;;;;;;4994260;28;20026;-70
2022/02/03 17:10:31;;;;;;;55.55;33.42;;;;;;;;;;4982159;28;20120;-70
2022/02/03 17:12:57;;;;;;;45.58;31.63;;;;;;;;;;4975143;28;20025;-69
2022/02/03 17:15:23;;;;;;;116.40;76.25;;;;;;;;;;4989334;28;20035;-70
2022/02/03 17:17:51;;;;;;;87.22;58.67;;;;;;;;;;4974526;28;20033;-71
2022/02/03 17:20:18;;;;;;;13.30;5.82;;;;;;;;;;4975085;28;20237;-71
2022/02/03 17:22:48;;;;;;;36.13;27.33;;;;;;;;;;4979707;28;20088;-70
2022/02/03 17:25:41;;;;;;;33.00;24.48;;;;;;;;;;4983886;28;20018;-71
2022/02/03 17:28:15;;;;;;;18.75;10.70;;;;;;;;;;4978109;28;20455;-71
2022/02/03 17:30:52;;;;;;;16.75;9.35;;;;;;;;;;4985214;28;20090;-72
2022/02/03 17:53:15;;;;;;;19.63;12.50;;;;;;;;;;4976223;28;20044;-70
2022/02/03 18:09:10;;;;;;;94.80;53.58;;;;;;;;;;4988388;28;20100;-69
2022/02/03 18:17:10;;;;;;;92.40;46.92;;;;;;;;;;4980209;28;20061;-70
2022/02/03 18:30:54;;;;;;;18.90;7.88;;;;;;;;;;4978155;28;21207;-70
2022/02/03 18:54:32;;;;;;;9.52;4.07;;;;;;;;;;4986297;28;20375;-70
2022/02/03 18:57:21;;;;;;;10.73;4.22;;;;;;;;;;4978391;28;20019;-69
2022/02/03 19:00:11;;;;;;;17.70;7.45;;;;;;;;;;4977879;28;20163;-70
2022/02/03 20:07:47;;;;;;;3.92;2.75;;;;;;;;;;4974057;28;20045;-69
2022/02/03 20:10:22;;;;;;;4.20;3.20;;;;;;;;;;4982918;28;20159;-69
2022/02/03 20:12:49;;;;;;;3.90;2.22;;;;;;;;;;4978207;28;20037;-69
2022/02/03 20:15:19;;;;;;;6.55;3.25;;;;;;;;;;4982072;28;20030;-69
2022/02/03 20:17:45;;;;;;;3.97;2.78;;;;;;;;;;4996938;28;20034;-70
2022/02/03 20:20:11;;;;;;;5.90;3.03;;;;;;;;;;4985757;28;20152;-71
2022/02/03 20:22:39;;;;;;;5.25;3.35;;;;;;;;;;4984034;28;20114;-70
2022/02/03 20:25:06;;;;;;;4.15;3.33;;;;;;;;;;4985550;28;20018;-72
2022/02/03 20:27:33;;;;;;;8.75;4.80;;;;;;;;;;5005838;28;20121;-71
2022/02/03 20:29:59;;;;;;;8.20;5.47;;;;;;;;;;4982068;28;20044;-72
2022/02/03 20:32:28;;;;;;;7.82;5.15;;;;;;;;;;4980753;28;20409;-72
2022/02/03 20:34:54;;;;;;;8.95;6.45;;;;;;;;;;4976690;28;20089;-72
2022/02/03 20:37:20;;;;;;;6.28;5.25;;;;;;;;;;4978352;28;20027;-71
2022/02/03 20:39:46;;;;;;;16.52;11.45;;;;;;;;;;5004724;28;20105;-72
2022/02/03 20:42:15;;;;;;;13.77;7.25;;;;;;;;;;4982868;28;20061;-72
2022/02/03 20:44:43;;;;;;;17.50;11.18;;;;;;;;;;4981791;28;20497;-72
2022/02/03 20:47:09;;;;;;;6.63;3.97;;;;;;;;;;4993148;28;20565;-72
2022/02/03 20:49:35;;;;;;;30.92;19.27;;;;;;;;;;4987594;28;20652;-72
2022/02/03 20:52:04;;;;;;;26.50;14.10;;;;;;;;;;4979694;28;20420;-72
2022/02/03 20:54:31;;;;;;;40.47;24.13;;;;;;;;;;4980036;28;20390;-73
2022/02/03 20:56:57;;;;;;;67.88;39.80;;;;;;;;;;4981492;28;20021;-73
2022/02/03 20:59:28;;;;;;;22.63;12.50;;;;;;;;;;4982621;28;20038;-72
2022/02/03 21:01:57;;;;;;;36.47;26.65;;;;;;;;;;4979945;28;20086;-72
2022/02/03 21:04:36;;;;;;;10.15;8.07;;;;;;;;;;4975923;28;20065;-72
2022/02/03 21:07:04;;;;;;;4.55;3.60;;;;;;;;;;4981593;28;20407;-73
2022/02/03 21:09:31;;;;;;;4.03;2.63;;;;;;;;;;4983173;28;20132;-72
2022/02/03 21:11:57;;;;;;;6.97;2.63;;;;;;;;;;4982831;28;20050;-71
2022/02/03 21:14:24;;;;;;;3.60;2.25;;;;;;;;;;4987462;28;20057;-71
2022/02/03 21:16:52;;;;;;;6.22;2.95;;;;;;;;;;4983461;28;20493;-71
2022/02/03 21:19:18;;;;;;;4.60;2.60;;;;;;;;;;4984357;28;20648;-72
2022/02/03 21:21:44;;;;;;;4.05;3.08;;;;;;;;;;4979169;28;20027;-72
2022/02/03 21:24:10;;;;;;;6.95;3.10;;;;;;;;;;4985240;28;20034;-72
2022/02/03 21:26:39;;;;;;;4.60;3.25;;;;;;;;;;4984232;28;20033;-71
2022/02/03 21:29:06;;;;;;;5.95;4.82;;;;;;;;;;4980659;28;20038;-71
2022/02/03 21:31:32;;;;;;;5.65;4.18;;;;;;;;;;4983319;28;20089;-71
2022/02/03 21:33:58;;;;;;;10.57;4.25;;;;;;;;;;4979581;28;20030;-71
2022/02/03 21:36:33;;;;;;;5.20;4.07;;;;;;;;;;4980555;28;20269;-71
2022/02/03 21:38:59;;;;;;;11.32;5.38;;;;;;;;;;4980761;28;20023;-72
2022/02/03 21:41:25;;;;;;;10.63;6.28;;;;;;;;;;4977782;28;20030;-72
2022/02/03 21:43:52;;;;;;;10.48;5.28;;;;;;;;;;4987813;28;20340;-71
2022/02/03 21:46:18;;;;;;;11.25;5.85;;;;;;;;;;4980000;28;20469;-71
2022/02/03 21:48:49;;;;;;;11.20;6.10;;;;;;;;;;4976411;28;20038;-71
2022/02/03 21:51:16;;;;;;;13.13;6.03;;;;;;;;;;4995168;28;20172;-71
2022/02/03 21:53:42;;;;;;;5.28;3.88;;;;;;;;;;4977917;28;20061;-72
2022/02/03 21:56:08;;;;;;;7.32;5.32;;;;;;;;;;4986266;28;20034;-72
2022/02/03 21:58:34;;;;;;;6.93;3.67;;;;;;;;;;4976651;28;20026;-72
2022/02/03 22:01:01;;;;;;;6.63;3.05;;;;;;;;;;4988927;28;20036;-72
2022/02/03 22:03:29;;;;;;;7.78;4.00;;;;;;;;;;4978236;28;20031;-72
2022/02/03 22:05:56;;;;;;;6.70;4.03;;;;;;;;;;4986943;28;20477;-72
2022/02/03 22:08:22;;;;;;;9.20;3.70;;;;;;;;;;4982163;28;20512;-73
2022/02/03 22:10:48;;;;;;;4.57;3.80;;;;;;;;;;4980363;28;20431;-72
2022/02/03 22:13:15;;;;;;;5.88;2.72;;;;;;;;;;4973248;28;20030;-72
2022/02/03 22:15:41;;;;;;;11.60;4.32;;;;;;;;;;4983786;28;20063;-72
2022/02/03 22:18:12;;;;;;;7.93;4.00;;;;;;;;;;4976010;28;20186;-73
2022/02/03 22:20:44;;;;;;;9.05;6.30;;;;;;;;;;4971531;28;20011;-72
2022/02/03 22:23:22;;;;;;;6.13;4.38;;;;;;;;;;4981306;28;20022;-72
2022/02/03 22:44:30;;;;;;;8.83;3.50;;;;;;;;;;4981614;28;20042;-72
2022/02/03 22:47:20;;;;;;;5.47;3.10;;;;;;;;;;4989257;28;20388;-72
2022/02/03 22:49:46;;;;;;;7.28;2.78;;;;;;;;;;4983494;28;20030;-71
2022/02/03 22:52:13;;;;;;;4.72;2.50;;;;;;;;;;4985198;28;20053;-71
2022/02/03 22:54:39;;;;;;;5.93;2.60;;;;;;;;;;4979475;28;20439;-71
2022/02/03 22:57:07;;;;;;;5.78;3.03;;;;;;;;;;4981210;28;20480;-71
2022/02/03 23:02:17;;;;;;;10.20;3.95;;;;;;;;;;4979845;28;20034;-71
2022/02/03 23:04:43;;;;;;;6.93;3.67;;;;;;;;;;4985396;28;20109;-71
2022/02/03 23:07:23;;;;;;;3.83;2.85;;;;;;;;;;4989918;28;20046;-71
2022/02/03 23:12:41;;;;;;;8.73;3.45;;;;;;;;;;4983988;28;20034;-72
2022/02/03 23:20:25;;;;;;;5.55;3.10;;;;;;;;;;4988227;28;20037;-71
2022/02/03 23:22:51;;;;;;;5.95;2.95;;;;;;;;;;4990630;28;20481;-72
2022/02/03 23:25:19;;;;;;;6.53;2.95;;;;;;;;;;4988397;28;20029;-72
2022/02/03 23:30:21;;;;;;;5.13;2.70;;;;;;;;;;4988532;28;20523;-72
2022/02/03 23:32:49;;;;;;;3.58;2.78;;;;;;;;;;4987715;28;20027;-72
2022/02/03 23:35:30;;;;;;;5.38;2.40;;;;;;;;;;4986219;28;20452;-72
2022/02/03 23:38:06;;;;;;;6.07;2.75;;;;;;;;;;4986639;28;20118;-73
2022/02/03 23:46:18;;;;;;;10.55;4.32;;;;;;;;;;4982875;28;20045;-71
